地図

経路データ

SID SEASON NUMBER BASIN SUBBASIN NAME ISO_TIME NATURE LAT LON WMO_WIND WMO_PRES WMO_AGENCY TRACK_TYPE DIST2LAND LANDFALL IFLAG USA_AGENCY USA_ATCF_ID USA_LAT USA_LON USA_RECORD USA_STATUS USA_WIND USA_PRES USA_SSHS USA_R34_NE USA_R34_SE USA_R34_SW USA_R34_NW USA_R50_NE USA_R50_SE USA_R50_SW USA_R50_NW USA_R64_NE USA_R64_SE USA_R64_SW USA_R64_NW USA_POCI USA_ROCI USA_RMW USA_EYE TOKYO_LAT TOKYO_LON TOKYO_GRADE TOKYO_WIND TOKYO_PRES TOKYO_R50_DIR TOKYO_R50_LONG TOKYO_R50_SHORT TOKYO_R30_DIR TOKYO_R30_LONG TOKYO_R30_SHORT TOKYO_LAND CMA_LAT CMA_LON CMA_CAT CMA_WIND CMA_PRES HKO_LAT HKO_LON HKO_CAT HKO_WIND HKO_PRES NEWDELHI_LAT NEWDELHI_LON NEWDELHI_GRADE NEWDELHI_WIND NEWDELHI_PRES NEWDELHI_CI NEWDELHI_DP NEWDELHI_POCI REUNION_LAT REUNION_LON REUNION_TYPE REUNION_WIND REUNION_PRES REUNION_TNUM REUNION_CI REUNION_RMW REUNION_R34_NE REUNION_R34_SE REUNION_R34_SW REUNION_R34_NW REUNION_R50_NE REUNION_R50_SE REUNION_R50_SW REUNION_R50_NW REUNION_R64_NE REUNION_R64_SE REUNION_R64_SW REUNION_R64_NW BOM_LAT BOM_LON BOM_TYPE BOM_WIND BOM_PRES BOM_TNUM BOM_CI BOM_RMW BOM_R34_NE BOM_R34_SE BOM_R34_SW BOM_R34_NW BOM_R50_NE BOM_R50_SE BOM_R50_SW BOM_R50_NW BOM_R64_NE BOM_R64_SE BOM_R64_SW BOM_R64_NW BOM_ROCI BOM_POCI BOM_EYE BOM_POS_METHOD BOM_PRES_METHOD NADI_LAT NADI_LON NADI_CAT NADI_WIND NADI_PRES WELLINGTON_LAT WELLINGTON_LON WELLINGTON_WIND WELLINGTON_PRES DS824_LAT DS824_LON DS824_STAGE DS824_WIND DS824_PRES TD9636_LAT TD9636_LON TD9636_STAGE TD9636_WIND TD9636_PRES TD9635_LAT TD9635_LON TD9635_WIND TD9635_PRES TD9635_ROCI NEUMANN_LAT NEUMANN_LON NEUMANN_CLASS NEUMANN_WIND NEUMANN_PRES MLC_LAT MLC_LON MLC_CLASS MLC_WIND MLC_PRES USA_GUST BOM_GUST BOM_GUST_PER REUNION_GUST REUNION_GUST_PER USA_SEAHGT USA_SEARAD_NE USA_SEARAD_SE USA_SEARAD_SW USA_SEARAD_NW STORM_SPEED STORM_DIR
1902162N19070 1902 18 NI AS NOT_NAMED 1902-06-11 00:00:00 TS 19.2000 70.4000 main 172 162 _________O____ -1 19.2000 70.4000 TC 30 2 324
1902162N19070 1902 18 NI AS NOT_NAMED 1902-06-11 03:00:00 TS 19.2717 70.3350 main 165 158 _________PO___ -1 19.3075 70.3025 TC 31 19.2000 70.4000 1 2 314
1902162N19070 1902 18 NI AS NOT_NAMED 1902-06-11 06:00:00 TS 19.3563 70.2338 main 158 158 _________OP___ -1 19.4000 70.2000 TC 32 19.2907 70.2845 1 3 309
1902162N19070 1902 18 NI AS NOT_NAMED 1902-06-11 09:00:00 TS 19.4265 70.1279 main 162 152 _________PP___ -1 19.4650 70.0925 TC 33 19.3751 70.1752 1 2 302
1902162N19070 1902 18 NI AS NOT_NAMED 1902-06-11 12:00:00 TS 19.4735 70.0391 main 158 158 _________OP___ -1 19.5000 70.0000 TC 34 19.4469 70.0782 1 2 297
1902162N19070 1902 18 NI AS NOT_NAMED 1902-06-11 15:00:00 TS 19.5000 69.9712 main 158 158 _________PO___ -1 19.5000 69.9425 TC 36 19.5000 70.0000 2 1 291
1902162N19070 1902 18 NI AS NOT_NAMED 1902-06-11 18:00:00 TS 19.5156 69.9218 main 163 163 _________OP___ -1 19.5000 69.9000 TC 39 19.5312 69.9437 2 1 298
1902162N19070 1902 18 NI AS NOT_NAMED 1902-06-11 21:00:00 TS 19.5462 69.8787 main 163 154 _________PP___ -1 19.5425 69.8575 TC 42 19.5499 69.8999 2 1 308
1902162N19070 1902 18 NI AS NOT_NAMED 1902-06-12 00:00:00 TS 19.5844 69.8281 main 161 161 _________OP___ -1 19.6000 69.8000 TC 45 19.5687 69.8562 2 1 302
1902162N19070 1902 18 NI AS NOT_NAMED 1902-06-12 03:00:00 TS 19.6213 69.7537 main 161 158 _________PO___ -1 19.6425 69.7075 TC 49 19.6000 69.8000 3 2 300
1902162N19070 1902 18 NI AS NOT_NAMED 1902-06-12 06:00:00 TS 19.6783 69.6612 main 158 154 _________OP___ -1 19.7000 69.6000 TC 54 19.6565 69.7225 3 2 309
1902162N19070 1902 18 NI AS NOT_NAMED 1902-06-12 09:00:00 TS 19.7600 69.5687 main 154 154 _________PP___ -1 19.7925 69.5075 TC 59 19.7275 69.6300 3 3 313
1902162N19070 1902 18 NI AS NOT_NAMED 1902-06-12 12:00:00 TS 19.8548 69.4612 main 152 152 _________OP___ -1 19.9000 69.4000 TC 64 19.8097 69.5225 3 3 310
1902162N19070 1902 18 NI AS NOT_NAMED 1902-06-12 15:00:00 TS 19.9500 69.3288 main 154 154 _________PO___ -1 20.0000 69.2575 TC 64 19.9000 69.4000 4 3 306
1902162N19070 1902 18 NI AS NOT_NAMED 1902-06-12 18:00:00 TS 20.0382 69.1882 main 161 152 _________OP___ -1 20.1000 69.1000 TC 64 19.9765 69.2764 4 3 304
1902162N19070 1902 18 NI AS NOT_NAMED 1902-06-12 21:00:00 TS 20.1237 69.0510 main 160 159 _________PP___ -1 20.1849 68.9649 TC 64 20.0624 69.1372 4 3 305
1902162N19070 1902 18 NI AS NOT_NAMED 1902-06-13 00:00:00 TS 20.2335 68.8897 main 167 159 _________OP___ -1 20.3000 68.8000 TC 64 20.1671 68.9794 4 4 308
1902162N19070 1902 18 NI AS NOT_NAMED 1902-06-13 03:00:00 TS 20.3925 68.6788 main 167 167 _________PO___ -1 20.4851 68.5576 TC 64 20.3000 68.8000 4 5 310
1902162N19070 1902 18 NI AS NOT_NAMED 1902-06-13 06:00:00 TS 20.5836 68.4443 main 174 167 _________OP___ -1 20.7000 68.3000 TC 64 20.4673 68.5886 4 6 312
1902162N19070 1902 18 NI AS NOT_NAMED 1902-06-13 09:00:00 TS 20.7813 68.2251 main 174 172 _________PP___ -1 20.8999 68.0924 TC 64 20.6627 68.3577 4 6 315
1902162N19070 1902 18 NI AS NOT_NAMED 1902-06-13 12:00:00 TS 20.9883 68.0115 main 172 167 _________OP___ -1 21.1000 67.9000 TC 64 20.8767 68.1229 4 6 316
1902162N19070 1902 18 NI AS NOT_NAMED 1902-06-13 15:00:00 TS 21.1963 67.7962 main 167 159 _________PO___ -1 21.2925 67.6925 TC 64 21.1000 67.9000 4 6 318
1902162N19070 1902 18 NI AS NOT_NAMED 1902-06-13 18:00:00 TS 21.4170 67.6012 main 167 161 _________OP___ -1 21.5000 67.5000 TC 64 21.3340 67.7025 4 6 324
1902162N19070 1902 18 NI AS NOT_NAMED 1902-06-13 21:00:00 TS 21.6687 67.4313 main 168 164 _________PP___ -1 21.7650 67.3425 TC 64 21.5724 67.5200 4 6 328
1902162N19070 1902 18 NI AS NOT_NAMED 1902-06-14 00:00:00 TS 21.8998 67.2763 main 170 170 _________OP___ -1 22.0000 67.2000 TC 64 21.7996 67.3525 4 5 323
1902162N19070 1902 18 NI AS NOT_NAMED 1902-06-14 03:00:00 TS 22.0575 67.1212 main 186 186 _________PO___ -1 22.1150 67.0424 TC 64 22.0000 67.2000 4 4 314
1902162N19070 1902 18 NI AS NOT_NAMED 1902-06-14 06:00:00 TS 22.1667 66.9781 main 189 182 _________OP___ -1 22.2000 66.9000 TC 64 22.1334 67.0562 4 3 313
1902162N19070 1902 18 NI AS NOT_NAMED 1902-06-14 09:00:00 TS 22.2849 66.8597 main 182 176 _________PP___ -1 22.3275 66.7924 TC 64 22.2424 66.9270 4 3 322
1902162N19070 1902 18 NI AS NOT_NAMED 1902-06-14 12:00:00 TS 22.4276 66.7547 main 176 162 _________OP___ -1 22.5000 66.7000 TC 64 22.3553 66.8093 4 4 330
1902162N19070 1902 18 NI AS NOT_NAMED 1902-06-14 15:00:00 TS 22.6175 66.6500 main 162 151 _________PO___ -1 22.7350 66.6000 TC 64 22.5000 66.7000 4 5 336
1902162N19070 1902 18 NI AS NOT_NAMED 1902-06-14 18:00:00 TS 22.8631 66.5464 main 150 135 _________OP___ -1 23.0000 66.5000 TC 64 22.7262 66.5929 4 5 339
1902162N19070 1902 18 NI AS NOT_NAMED 1902-06-14 21:00:00 TS 23.1250 66.4463 main 143 121 _________PP___ -1 23.2650 66.4000 TC 64 22.9850 66.4926 4 5 340
1902162N19070 1902 18 NI AS NOT_NAMED 1902-06-15 00:00:00 TS 23.3756 66.3480 main 130 120 _________OP___ -1 23.5000 66.3000 TC 64 23.2512 66.3960 4 5 338
1902162N19070 1902 18 NI AS NOT_NAMED 1902-06-15 03:00:00 TS 23.5787 66.2500 main 129 126 _________PO___ -1 23.6575 66.1999 TC 64 23.5000 66.3000 4 4 332
1902162N19070 1902 18 NI AS NOT_NAMED 1902-06-15 06:00:00 TS 23.7483 66.1358 main 136 117 _________OP___ -1 23.8000 66.1000 TC 64 23.6966 66.1717 4 4 328
1902162N19070 1902 18 NI AS NOT_NAMED 1902-06-15 09:00:00 TS 23.9325 66.0127 main 123 112 _________PP___ -1 23.9925 65.9776 TC 64 23.8725 66.0477 4 4 332
1902162N19070 1902 18 NI AS NOT_NAMED 1902-06-15 12:00:00 TS 24.1186 65.9249 main 112 98 _________OP___ -1 24.2000 65.9000 TC 64 24.0372 65.9499 4 4 345
1902162N19070 1902 18 NI AS NOT_NAMED 1902-06-15 15:00:00 TS 24.3037 65.9100 main 98 87 _________PO___ -1 24.4075 65.9199 TC 64 24.2000 65.9000 4 4 3
1902162N19070 1902 18 NI AS NOT_NAMED 1902-06-15 18:00:00 TS 24.4677 65.9505 main 78 74 _________OP___ -1 24.6000 66.0000 TC 64 24.3685 65.9134 4 3 18
1902162N19070 1902 18 NI AS NOT_NAMED 1902-06-15 21:00:00 TS 24.6296 66.0267 main 74 60 _________PP___ -1 24.7600 66.0975 TC 64 24.5426 65.9795 4 4 26
1902162N19070 1902 18 NI AS NOT_NAMED 1902-06-16 00:00:00 TS 24.7803 66.1205 main 60 50 _________OP___ -1 24.9000 66.2000 TC 64 24.7204 66.0808 4 3 31
1902162N19070 1902 18 NI AS NOT_NAMED 1902-06-16 03:00:00 NR 24.9000 66.2000 main 51 __________O___ -1 TC 24.9000 66.2000 4 3 29

IBTrACS Databaseについて

本データベースは、米国NOAAが公開する1842年以降の世界の熱帯低気圧のベストトラックデータアーカイブInternational Best Track Archive for Climate Stewardship (IBTrACS)を、ウェブで閲覧しやすい形式に変換したものです。

最終更新日:2021-10-21